Aaron Joseph — WCV9877 — position and weather

sailwx.info

Track history (hours):
 
Tides and Currents Weather Stations Pressure Air Temp Water Temp Dewpoint Dewpoint Depression Visibility Wind Speed Wind Dir Waves Ship Positions

Aaron Joseph

Owner: AARON JOSEPH INC, GOLDEN MEADOW, LA. More information available from US FCC via Universal Licensing System and Coast Guard Vessel Documentation Center.

Last reported at 2015-Aug-27 02:26 UTC. Time now 2015-Sep-01 01:56 UTC.
Position N 29°34' W 090°56'.

; draft 2.5 m.

Type: Tug. MMSI: 367028680.

Date/timePositionNaut miles runAvg speedWind from/ knotsBaromVisibWave heightAir tempDewpointWater temp
2015-Aug-27 02:26N 29°34' W 090°56'5 5.2
2015-Aug-27 01:33N 29°32' W 090°51'5 5.0
2015-Aug-27 00:33N 29°32' W 090°46'4 4.4
2015-Aug-26 23:33N 29°36' W 090°43'4 4.2
2015-Aug-26 22:33N 29°35' W 090°38'5 5.1
2015-Aug-26 21:33N 29°34' W 090°32'2 0.0
2015-Aug-24 22:33N 29°34' W 090°30'28 1.5
2015-Aug-24 04:30N 29°50' W 090°04'29 5.9
2015-Aug-23 23:33N 29°34' W 090°32'3 3.3
2015-Aug-23 22:32N 29°35' W 090°36'0 0.0
2015-Aug-23 21:32N 29°35' W 090°36'0 0.0
2015-Aug-23 20:32N 29°35' W 090°36'0 0.0
2015-Aug-23 19:32N 29°35' W 090°36'0 0.0
2015-Aug-23 18:32N 29°35' W 090°36'0 0.0
2015-Aug-23 17:32N 29°35' W 090°36'0 0.0
2015-Aug-23 16:26N 29°35' W 090°36'0 0.0
2015-Aug-23 15:32N 29°35' W 090°36'0 0.0
2015-Aug-23 14:32N 29°35' W 090°36'0 0.0
2015-Aug-23 13:32N 29°35' W 090°36'0 0.0
2015-Aug-23 12:32N 29°35' W 090°36'0 0.0
2015-Aug-23 11:32N 29°35' W 090°36'0 0.0
2015-Aug-23 10:32N 29°35' W 090°36'0 0.0
2015-Aug-23 09:26N 29°35' W 090°36'0 0.0
2015-Aug-23 08:32N 29°35' W 090°36'0 0.0
2015-Aug-23 07:32N 29°35' W 090°36'0 0.0
2015-Aug-23 06:32N 29°35' W 090°36'0 0.0
2015-Aug-23 05:32N 29°35' W 090°36'0 0.0
2015-Aug-23 04:26N 29°35' W 090°36'0 0.0
2015-Aug-23 03:32N 29°35' W 090°36'0 0.0
2015-Aug-23 02:32N 29°35' W 090°36'0 0.0
2015-Aug-23 01:32N 29°35' W 090°36'0 0.0
2015-Aug-23 00:32N 29°35' W 090°36'0 0.0
2015-Aug-22 23:32N 29°35' W 090°36'0 0.0
2015-Aug-22 22:26N 29°35' W 090°36'0 0.0
2015-Aug-22 21:32N 29°35' W 090°36'0 0.0
2015-Aug-22 20:32N 29°35' W 090°36'0 0.0
2015-Aug-22 19:32N 29°35' W 090°36'0 0.0
2015-Aug-22 18:32N 29°35' W 090°36'0 0.0
2015-Aug-22 17:32N 29°35' W 090°36'4 3.8
2015-Aug-22 16:33N 29°36' W 090°40'4 4.4
2015-Aug-22 15:33N 29°32' W 090°42'7 6.8
2015-Aug-22 14:32N 29°25' W 090°43'5 1.9
2015-Aug-22 12:03N 29°21' W 090°44'  
2015-Aug-19 04:27N 29°23' W 090°44'5 5.6
2015-Aug-19 03:33N 29°28' W 090°43'5 5.3
2015-Aug-19 02:34N 29°33' W 090°42'3 2.7
2015-Aug-19 01:33N 29°33' W 090°45'0 0.2
2015-Aug-19 00:33N 29°33' W 090°45'4 3.6
2015-Aug-18 23:33N 29°32' W 090°50'6 6.2
2015-Aug-18 22:33N 29°34' W 090°56'  
Track history (hours):
 
Tides and Currents Weather Stations Pressure Air Temp Water Temp Dewpoint Dewpoint Depression Visibility Wind Speed Wind Dir Waves Ship Positions

Aaron Joseph

Owner: AARON JOSEPH INC, GOLDEN MEADOW, LA. More information available from US FCC via Universal Licensing System and Coast Guard Vessel Documentation Center.

Last reported at 2015-Aug-27 02:26 UTC. Time now 2015-Sep-01 01:56 UTC.
Position N 29°34' W 090°56'.

; draft 2.5 m.

Type: Tug. MMSI: 367028680.

Date/timePositionNaut miles runAvg speedWind from/ knotsBaromVisibWave heightAir tempDewpointWater temp
2015-Aug-27 02:26N 29°34' W 090°56'5 5.2
2015-Aug-27 01:33N 29°32' W 090°51'5 5.0
2015-Aug-27 00:33N 29°32' W 090°46'4 4.4
2015-Aug-26 23:33N 29°36' W 090°43'4 4.2
2015-Aug-26 22:33N 29°35' W 090°38'5 5.1
2015-Aug-26 21:33N 29°34' W 090°32'2 0.0
2015-Aug-24 22:33N 29°34' W 090°30'28 1.5
2015-Aug-24 04:30N 29°50' W 090°04'29 5.9
2015-Aug-23 23:33N 29°34' W 090°32'3 3.3
2015-Aug-23 22:32N 29°35' W 090°36'0 0.0
2015-Aug-23 21:32N 29°35' W 090°36'0 0.0
2015-Aug-23 20:32N 29°35' W 090°36'0 0.0
2015-Aug-23 19:32N 29°35' W 090°36'0 0.0
2015-Aug-23 18:32N 29°35' W 090°36'0 0.0
2015-Aug-23 17:32N 29°35' W 090°36'0 0.0
2015-Aug-23 16:26N 29°35' W 090°36'0 0.0
2015-Aug-23 15:32N 29°35' W 090°36'0 0.0
2015-Aug-23 14:32N 29°35' W 090°36'0 0.0
2015-Aug-23 13:32N 29°35' W 090°36'0 0.0
2015-Aug-23 12:32N 29°35' W 090°36'0 0.0
2015-Aug-23 11:32N 29°35' W 090°36'0 0.0
2015-Aug-23 10:32N 29°35' W 090°36'0 0.0
2015-Aug-23 09:26N 29°35' W 090°36'0 0.0
2015-Aug-23 08:32N 29°35' W 090°36'0 0.0
2015-Aug-23 07:32N 29°35' W 090°36'0 0.0
2015-Aug-23 06:32N 29°35' W 090°36'0 0.0
2015-Aug-23 05:32N 29°35' W 090°36'0 0.0
2015-Aug-23 04:26N 29°35' W 090°36'0 0.0
2015-Aug-23 03:32N 29°35' W 090°36'0 0.0
2015-Aug-23 02:32N 29°35' W 090°36'0 0.0
2015-Aug-23 01:32N 29°35' W 090°36'0 0.0
2015-Aug-23 00:32N 29°35' W 090°36'0 0.0
2015-Aug-22 23:32N 29°35' W 090°36'0 0.0
2015-Aug-22 22:26N 29°35' W 090°36'0 0.0
2015-Aug-22 21:32N 29°35' W 090°36'0 0.0
2015-Aug-22 20:32N 29°35' W 090°36'0 0.0
2015-Aug-22 19:32N 29°35' W 090°36'0 0.0
2015-Aug-22 18:32N 29°35' W 090°36'0 0.0
2015-Aug-22 17:32N 29°35' W 090°36'4 3.8
2015-Aug-22 16:33N 29°36' W 090°40'4 4.4
2015-Aug-22 15:33N 29°32' W 090°42'7 6.8
2015-Aug-22 14:32N 29°25' W 090°43'5 1.9
2015-Aug-22 12:03N 29°21' W 090°44'  
2015-Aug-19 04:27N 29°23' W 090°44'5 5.6
2015-Aug-19 03:33N 29°28' W 090°43'5 5.3
2015-Aug-19 02:34N 29°33' W 090°42'3 2.7
2015-Aug-19 01:33N 29°33' W 090°45'0 0.2
2015-Aug-19 00:33N 29°33' W 090°45'4 3.6
2015-Aug-18 23:33N 29°32' W 090°50'6 6.2
2015-Aug-18 22:33N 29°34' W 090°56'  

Dump ship's entire track history